createdAt,value
2023-01-01T00:01:49.467Z,100598.22
2023-01-01T00:04:17.082Z,100587.75
2023-01-01T00:06:46.190Z,100598.84
2023-01-01T00:09:31.315Z,100593.25
2023-01-01T00:11:58.748Z,100600.16
2023-01-01T00:14:26.760Z,100609.59
2023-01-01T00:16:55.569Z,100600.66
2023-01-01T00:19:23.317Z,100608.63
2023-01-01T00:21:52.065Z,100603.50
2023-01-01T00:24:19.495Z,100602.22
2023-01-01T00:26:47.429Z,100600.16
2023-01-01T00:29:14.936Z,100601.25
2023-01-01T00:31:42.455Z,100620.78
2023-01-01T00:34:11.068Z,100613.03
2023-01-01T00:36:38.561Z,100614.25
2023-01-01T00:39:07.299Z,100613.97
2023-01-01T00:41:34.713Z,100608.63
2023-01-01T00:44:02.343Z,100611.78
2023-01-01T00:46:30.004Z,100614.94
2023-01-01T00:48:57.560Z,100612.66
2023-01-01T00:51:25.015Z,100609.53
2023-01-01T00:53:52.448Z,100612.81
2023-01-01T00:56:21.230Z,100609.66
2023-01-01T00:59:00.623Z,100623.00
2023-01-01T01:01:29.202Z,100624.31
2023-01-01T01:03:56.747Z,100627.63
2023-01-01T01:06:24.420Z,100636.28
2023-01-01T01:08:51.868Z,100643.00
2023-01-01T01:11:22.736Z,100640.81
2023-01-01T01:13:52.518Z,100643.47
2023-01-01T01:16:22.554Z,100646.16
2023-01-01T01:18:51.612Z,100647.66
2023-01-01T01:21:20.648Z,100642.09
2023-01-01T01:23:48.776Z,100639.22
2023-01-01T01:26:18.110Z,100633.97
2023-01-01T01:28:49.670Z,100639.72
2023-01-01T01:31:18.673Z,100647.22
2023-01-01T01:33:47.281Z,100646.03
2023-01-01T01:36:16.083Z,100652.38
2023-01-01T01:38:43.989Z,100648.25
2023-01-01T01:41:26.745Z,100646.22
2023-01-01T01:43:58.944Z,100652.66
2023-01-01T01:46:33.401Z,100659.31
2023-01-01T01:49:05.882Z,100637.63
2023-01-01T01:51:37.193Z,100644.97
2023-01-01T01:54:10.095Z,100641.31
2023-01-01T01:56:46.685Z,100644.47
2023-01-01T01:59:16.795Z,100632.19
2023-01-01T02:01:44.366Z,100635.91
2023-01-01T02:04:13.379Z,100647.56
2023-01-01T02:06:41.239Z,100645.44
2023-01-01T02:09:10.620Z,100653.00
2023-01-01T02:11:38.593Z,100653.41
2023-01-01T02:14:06.839Z,100652.22
2023-01-01T02:16:40.466Z,100651.31
2023-01-01T02:19:18.259Z,100658.94
2023-01-01T02:21:57.604Z,100650.16
2023-01-01T02:24:41.049Z,100650.38
2023-01-01T02:27:18.800Z,100643.97
2023-01-01T02:29:52.942Z,100633.09
2023-01-01T02:32:24.232Z,100642.09
2023-01-01T02:34:58.211Z,100644.06
2023-01-01T02:37:28.122Z,100640.78
2023-01-01T02:39:59.011Z,100638.19
2023-01-01T02:42:29.931Z,100630.16
2023-01-01T02:45:00.157Z,100632.88
2023-01-01T02:47:27.724Z,100631.66
2023-01-01T02:50:00.216Z,100624.94
2023-01-01T02:52:57.880Z,100622.41
2023-01-01T02:55:37.104Z,100625.91
2023-01-01T02:58:31.461Z,100620.81
2023-01-01T03:01:09.705Z,100621.53
2023-01-01T03:03:42.129Z,100622.31
2023-01-01T03:06:23.913Z,100624.34
2023-01-01T03:08:58.935Z,100629.03
2023-01-01T03:11:36.474Z,100628.63
2023-01-01T03:14:09.364Z,100646.50
2023-01-01T03:16:43.056Z,100637.44
2023-01-01T03:19:14.842Z,100638.53
2023-01-01T03:21:45.515Z,100643.47
2023-01-01T03:24:18.314Z,100651.66
2023-01-01T03:26:49.500Z,100634.72
2023-01-01T03:29:18.557Z,100651.34
2023-01-01T03:31:51.930Z,100636.94
2023-01-01T03:34:23.365Z,100632.00
2023-01-01T03:36:55.360Z,100634.47
2023-01-01T03:39:26.706Z,100628.41
2023-01-01T03:42:03.191Z,100637.91
2023-01-01T03:44:34.965Z,100629.44
2023-01-01T03:47:06.162Z,100641.25
2023-01-01T03:49:34.831Z,100641.13
2023-01-01T03:52:15.370Z,100658.72
2023-01-01T03:54:56.758Z,100659.63
2023-01-01T03:57:34.860Z,100654.41
2023-01-01T04:00:08.094Z,100668.59
2023-01-01T04:02:41.748Z,100673.34
2023-01-01T04:05:11.157Z,100676.41
2023-01-01T04:07:39.860Z,100676.81
2023-01-01T04:10:17.336Z,100693.63
2023-01-01T04:12:47.308Z,100694.94
2023-01-01T04:15:15.172Z,100679.41
2023-01-01T04:17:44.014Z,100698.22
2023-01-01T04:20:12.079Z,100698.84
2023-01-01T04:22:39.692Z,100706.56
2023-01-01T04:25:08.692Z,100700.53
2023-01-01T04:27:36.346Z,100701.22
2023-01-01T04:30:04.455Z,100699.25
2023-01-01T04:32:31.899Z,100706.56
2023-01-01T04:35:00.823Z,100712.69
2023-01-01T04:37:28.390Z,100707.41
2023-01-01T04:39:55.865Z,100707.41
2023-01-01T04:42:23.540Z,100709.66
2023-01-01T04:44:50.966Z,100710.13
2023-01-01T04:47:18.359Z,100710.22
2023-01-01T04:49:45.865Z,100722.88
2023-01-01T04:52:14.732Z,100712.38
2023-01-01T04:54:42.171Z,100723.31
2023-01-01T04:57:09.570Z,100720.34
2023-01-01T04:59:37.066Z,100719.63
2023-01-01T05:02:04.723Z,100719.00
2023-01-01T05:04:32.249Z,100717.75
2023-01-01T05:06:59.767Z,100710.53
2023-01-01T05:09:28.591Z,100723.13
2023-01-01T05:11:56.763Z,100718.38
2023-01-01T05:14:24.217Z,100729.03
2023-01-01T05:16:51.675Z,100726.81
2023-01-01T05:19:19.161Z,100723.31
2023-01-01T05:21:46.695Z,100728.41
2023-01-01T05:24:14.325Z,100719.19
2023-01-01T05:26:46.545Z,100733.44
2023-01-01T05:29:17.025Z,100738.63
2023-01-01T05:31:45.966Z,100735.47
2023-01-01T05:34:13.894Z,100740.97
2023-01-01T05:36:41.372Z,100727.53
2023-01-01T05:39:10.240Z,100729.41
2023-01-01T05:41:37.779Z,100732.06
2023-01-01T05:44:09.068Z,100730.41
2023-01-01T05:46:37.604Z,100740.16
2023-01-01T05:49:05.586Z,100738.84
2023-01-01T05:54:02.095Z,100736.78
2023-01-01T05:56:29.569Z,100730.78
2023-01-01T05:58:57.259Z,100736.06
2023-01-01T06:01:28.042Z,100744.44
2023-01-01T06:03:57.228Z,100736.19
2023-01-01T06:06:26.658Z,100745.56
2023-01-01T06:08:55.466Z,100749.72
2023-01-01T06:11:23.587Z,100751.69
2023-01-01T06:13:53.497Z,100739.31
2023-01-01T06:16:21.003Z,100748.88
2023-01-01T06:18:49.775Z,100735.75
2023-01-01T06:21:19.126Z,100737.84
2023-01-01T06:23:46.993Z,100755.03
2023-01-01T06:26:16.346Z,100760.06
2023-01-01T06:28:44.700Z,100761.13
2023-01-01T06:31:15.967Z,100747.78
2023-01-01T06:33:44.750Z,100752.19
2023-01-01T06:36:15.607Z,100760.09
2023-01-01T06:38:44.759Z,100756.50
2023-01-01T06:41:15.049Z,100771.56
2023-01-01T06:43:43.023Z,100779.09
2023-01-01T06:46:15.892Z,100773.09
2023-01-01T06:48:43.619Z,100779.38
2023-01-01T06:51:14.540Z,100771.03
2023-01-01T06:53:42.618Z,100775.63
2023-01-01T06:56:10.921Z,100781.56
2023-01-01T06:58:38.633Z,100773.09
2023-01-01T07:01:08.872Z,100782.72
2023-01-01T07:03:36.621Z,100777.28
2023-01-01T07:06:04.523Z,100779.31
2023-01-01T07:08:33.393Z,100791.50
2023-01-01T07:11:00.889Z,100786.38
2023-01-01T07:13:29.863Z,100796.56
2023-01-01T07:15:57.343Z,100796.41
2023-01-01T07:18:25.930Z,100809.00
2023-01-01T07:20:54.788Z,100805.22
2023-01-01T07:23:22.400Z,100804.13
2023-01-01T07:25:52.558Z,100811.16
2023-01-01T07:28:20.689Z,100819.59
2023-01-01T07:30:48.804Z,100813.34
2023-01-01T07:33:18.076Z,100818.69
2023-01-01T07:35:46.181Z,100816.72
2023-01-01T07:38:14.504Z,100814.28
2023-01-01T07:40:42.828Z,100820.59
2023-01-01T07:43:12.554Z,100820.66
2023-01-01T07:45:40.047Z,100815.69
2023-01-01T07:48:10.224Z,100838.59
2023-01-01T07:50:38.217Z,100852.72
2023-01-01T07:53:05.751Z,100856.41
2023-01-01T07:55:34.003Z,100856.47
2023-01-01T07:58:01.884Z,100851.56
2023-01-01T08:00:31.018Z,100849.81
2023-01-01T08:02:58.675Z,100855.38
2023-01-01T08:05:27.287Z,100857.53
2023-01-01T08:07:54.922Z,100868.47
2023-01-01T08:10:22.400Z,100858.69
2023-01-01T08:12:50.178Z,100857.41
2023-01-01T08:15:18.557Z,100863.00
2023-01-01T08:17:47.592Z,100864.03
2023-01-01T08:20:15.360Z,100858.38
2023-01-01T08:22:42.845Z,100862.53
2023-01-01T08:25:10.532Z,100869.75
2023-01-01T08:27:38.183Z,100867.59
2023-01-01T08:30:06.699Z,100877.47
2023-01-01T08:32:34.206Z,100886.09
2023-01-01T08:35:02.976Z,100879.91
2023-01-01T08:37:30.429Z,100878.94
2023-01-01T08:39:57.914Z,100889.50
2023-01-01T08:42:25.349Z,100890.81
2023-01-01T08:44:52.750Z,100904.53
2023-01-01T08:47:22.127Z,100909.56
2023-01-01T08:49:49.657Z,100897.25
2023-01-01T08:52:18.942Z,100902.56
2023-01-01T08:54:46.654Z,100902.00
2023-01-01T08:57:14.179Z,100901.28
2023-01-01T08:59:41.776Z,100914.94
2023-01-01T09:02:09.461Z,100908.63
2023-01-01T09:04:37.039Z,100913.63
2023-01-01T09:07:05.011Z,100915.25
2023-01-01T09:09:33.744Z,100924.78
2023-01-01T09:12:06.443Z,100930.44
2023-01-01T09:14:34.602Z,100942.59
2023-01-01T09:17:02.440Z,100945.25
2023-01-01T09:19:29.912Z,100939.63
2023-01-01T09:21:57.383Z,100951.34
2023-01-01T09:24:25.062Z,100964.16
2023-01-01T09:26:53.785Z,100968.72
2023-01-01T09:29:21.862Z,100977.13
2023-01-01T09:31:49.949Z,100971.16
2023-01-01T09:34:18.068Z,100959.00
2023-01-01T09:36:46.526Z,100965.81
2023-01-01T09:39:15.571Z,100958.19
2023-01-01T09:42:02.161Z,100962.31
2023-01-01T09:44:54.449Z,100959.09
2023-01-01T09:47:27.340Z,100961.41
2023-01-01T09:50:00.230Z,100951.75
2023-01-01T09:52:36.302Z,100965.41
2023-01-01T09:55:12.040Z,100967.75
2023-01-01T09:57:40.198Z,100960.03
2023-01-01T10:00:15.980Z,100966.88
2023-01-01T10:02:56.276Z,100964.78
2023-01-01T10:05:33.595Z,100960.97
2023-01-01T10:08:08.358Z,100972.72
2023-01-01T10:10:41.057Z,100975.31
2023-01-01T10:13:22.372Z,100981.88
2023-01-01T10:15:58.347Z,100987.56
2023-01-01T10:18:29.908Z,100985.34
2023-01-01T10:21:03.120Z,100990.63
2023-01-01T10:23:35.207Z,100985.44
2023-01-01T10:26:10.098Z,100984.38
2023-01-01T10:28:43.721Z,100994.56
2023-01-01T10:31:20.718Z,100990.94
2023-01-01T10:33:48.820Z,100999.25
2023-01-01T10:36:20.405Z,101005.44
2023-01-01T10:38:49.572Z,101014.97
2023-01-01T10:41:20.201Z,101032.41
2023-01-01T10:43:49.256Z,101019.47
2023-01-01T10:46:29.444Z,101010.06
2023-01-01T10:49:08.164Z,101022.88
2023-01-01T10:51:38.773Z,101011.69
2023-01-01T10:54:06.257Z,101015.16
2023-01-01T10:56:43.374Z,101013.41
2023-01-01T10:59:36.168Z,101006.50
2023-01-01T11:02:20.956Z,101022.59
2023-01-01T11:04:49.592Z,101025.84
2023-01-01T11:07:27.670Z,101031.31
2023-01-01T11:10:03.445Z,101036.25
2023-01-01T11:13:04.104Z,101044.78
2023-01-01T11:15:31.185Z,101060.84
2023-01-01T11:18:06.823Z,101051.28
2023-01-01T11:20:34.911Z,101052.81
2023-01-01T11:23:19.879Z,101062.59
2023-01-01T11:25:58.999Z,101059.38
2023-01-01T11:28:27.193Z,101065.38
2023-01-01T11:31:04.635Z,101058.16
2023-01-01T11:33:36.270Z,101049.31
2023-01-01T11:36:06.042Z,101046.16
2023-01-01T11:38:33.726Z,101043.25
2023-01-01T11:41:05.611Z,101042.97
2023-01-01T11:43:39.401Z,101036.50
2023-01-01T11:46:10.052Z,101041.81
2023-01-01T11:48:43.126Z,101036.25
2023-01-01T11:51:28.285Z,101040.94
2023-01-01T11:54:10.673Z,101059.44
2023-01-01T11:56:39.125Z,101064.56
2023-01-01T11:59:16.598Z,101058.69
2023-01-01T12:01:48.039Z,101054.31
2023-01-01T12:04:23.596Z,101060.53
2023-01-01T12:06:56.843Z,101064.69
2023-01-01T12:09:28.555Z,101072.13
2023-01-01T12:12:01.250Z,101075.59
2023-01-01T12:14:36.199Z,101074.47
2023-01-01T12:17:06.361Z,101084.66
2023-01-01T12:19:40.498Z,101088.00
2023-01-01T12:22:15.832Z,101077.88
2023-01-01T12:24:43.580Z,101079.91
2023-01-01T12:27:19.906Z,101079.53
2023-01-01T12:30:11.676Z,101071.78
2023-01-01T12:33:05.676Z,101062.69
2023-01-01T12:35:53.434Z,101061.25
2023-01-01T12:38:38.318Z,101069.16
2023-01-01T12:41:12.616Z,101056.84
2023-01-01T12:43:47.591Z,101052.00
2023-01-01T12:46:43.781Z,101061.31
2023-01-01T12:49:42.924Z,101063.53
2023-01-01T12:52:31.343Z,101040.94
2023-01-01T12:55:37.385Z,101055.91
2023-01-01T12:58:13.137Z,101051.31
2023-01-01T13:00:44.208Z,101060.19
2023-01-01T13:03:19.422Z,101055.31
2023-01-01T13:05:51.356Z,101059.00
2023-01-01T13:08:20.486Z,101062.75
2023-01-01T13:10:51.425Z,101072.59
2023-01-01T13:13:19.539Z,101073.06
2023-01-01T13:15:53.348Z,101062.50
2023-01-01T13:18:27.257Z,101065.75
2023-01-01T13:21:06.901Z,101067.84
2023-01-01T13:23:53.114Z,101076.06
2023-01-01T13:26:37.961Z,101090.97
2023-01-01T13:29:34.980Z,101098.25
2023-01-01T13:32:10.458Z,101093.53
2023-01-01T13:34:43.414Z,101108.91
2023-01-01T13:37:27.389Z,101115.94
2023-01-01T13:39:58.377Z,101120.81
2023-01-01T13:42:44.356Z,101129.72
2023-01-01T13:45:44.117Z,101137.03
2023-01-01T13:48:23.979Z,101142.16
2023-01-01T13:51:01.952Z,101150.97
2023-01-01T13:53:49.021Z,101145.72
2023-01-01T13:56:34.567Z,101147.13
2023-01-01T13:59:27.000Z,101155.31
2023-01-01T14:02:14.044Z,101154.63
2023-01-01T14:04:46.346Z,101160.34
2023-01-01T14:07:51.236Z,101173.78
2023-01-01T14:10:27.836Z,101171.13
2023-01-01T14:13:02.468Z,101174.03
2023-01-01T14:15:32.169Z,101168.41
2023-01-01T14:18:01.511Z,101164.94
2023-01-01T14:20:34.986Z,101174.63
2023-01-01T14:23:07.920Z,101175.72
2023-01-01T14:25:35.899Z,101165.78
2023-01-01T14:28:05.048Z,101170.94
2023-01-01T14:30:34.095Z,101180.75
2023-01-01T14:33:03.462Z,101178.13
2023-01-01T14:35:31.174Z,101178.72
2023-01-01T14:37:58.655Z,101182.53
2023-01-01T14:40:29.185Z,101193.56
2023-01-01T14:43:01.018Z,101183.16
2023-01-01T14:45:30.784Z,101187.50
2023-01-01T14:47:58.609Z,101183.06
2023-01-01T14:50:31.252Z,101196.81
2023-01-01T14:53:04.786Z,101193.28
2023-01-01T14:55:38.956Z,101208.63
2023-01-01T14:58:06.609Z,101215.38
2023-01-01T15:00:35.929Z,101205.00
2023-01-01T15:03:12.102Z,101192.63
2023-01-01T15:05:41.354Z,101209.44
2023-01-01T15:08:19.884Z,101209.25
2023-01-01T15:10:48.088Z,101216.22
2023-01-01T15:13:20.066Z,101219.72
2023-01-01T15:15:50.672Z,101229.19
2023-01-01T15:18:41.257Z,101233.47
2023-01-01T15:21:15.320Z,101255.16
2023-01-01T15:23:52.140Z,101248.47
2023-01-01T15:26:29.085Z,101250.81
2023-01-01T15:28:57.591Z,101246.41
2023-01-01T15:31:36.016Z,101257.06
2023-01-01T15:34:04.791Z,101255.31
2023-01-01T15:36:32.523Z,101258.56
2023-01-01T15:39:00.554Z,101255.16
2023-01-01T15:41:43.396Z,101256.75
2023-01-01T15:44:20.089Z,101268.00
2023-01-01T15:46:51.621Z,101277.81
2023-01-01T15:49:27.241Z,101277.56
2023-01-01T15:51:58.174Z,101289.94
2023-01-01T15:54:26.115Z,101298.66
2023-01-01T15:56:54.600Z,101300.44
2023-01-01T15:59:29.021Z,101298.69
2023-01-01T16:02:16.753Z,101286.56
2023-01-01T16:04:47.674Z,101302.16
2023-01-01T16:07:21.006Z,101306.50
2023-01-01T16:09:54.976Z,101312.41
2023-01-01T16:12:24.662Z,101307.28
2023-01-01T16:14:52.208Z,101303.88
2023-01-01T16:17:21.972Z,101317.69
2023-01-01T16:19:51.502Z,101302.16
2023-01-01T16:22:20.388Z,101296.94
2023-01-01T16:24:47.908Z,101295.16
2023-01-01T16:27:15.334Z,101291.72
2023-01-01T16:29:43.665Z,101300.41
2023-01-01T16:32:17.654Z,101294.34
2023-01-01T16:34:46.678Z,101296.91
2023-01-01T16:37:14.157Z,101296.06
2023-01-01T16:39:41.563Z,101302.16
2023-01-01T16:42:12.147Z,101309.09
2023-01-01T16:44:41.812Z,101300.44
2023-01-01T16:47:09.583Z,101296.13
2023-01-01T16:49:37.204Z,101303.03
2023-01-01T16:52:06.249Z,101309.97
2023-01-01T16:54:34.729Z,101306.50
2023-01-01T16:57:02.245Z,101305.59
2023-01-01T16:59:29.676Z,101313.41
2023-01-01T17:01:57.163Z,101314.28
2023-01-01T17:04:24.604Z,101324.69
2023-01-01T17:06:52.019Z,101327.28
2023-01-01T17:09:20.815Z,101317.78
2023-01-01T17:11:48.254Z,101324.66
2023-01-01T17:14:15.661Z,101320.34
2023-01-01T17:16:43.145Z,101324.69
2023-01-01T17:19:15.734Z,101325.56
2023-01-01T17:21:44.520Z,101328.16
2023-01-01T17:24:12.215Z,101331.56
2023-01-01T17:26:41.051Z,101329.88
2023-01-01T17:29:08.494Z,101321.19
2023-01-01T17:31:36.264Z,101325.50
2023-01-01T17:34:04.105Z,101326.38
2023-01-01T17:36:31.874Z,101322.97
2023-01-01T17:38:59.328Z,101324.69
2023-01-01T17:41:26.725Z,101309.97
2023-01-01T17:43:57.088Z,101319.50
2023-01-01T17:46:26.687Z,101325.53
2023-01-01T17:48:54.296Z,101317.75
2023-01-01T17:51:22.214Z,101320.38
2023-01-01T17:53:50.358Z,101318.56
2023-01-01T17:56:20.052Z,101319.44
2023-01-01T17:58:48.588Z,101327.25
2023-01-01T18:01:30.579Z,101322.88
2023-01-01T18:03:59.661Z,101326.38
2023-01-01T18:06:27.280Z,101318.59
2023-01-01T18:08:58.808Z,101318.56
2023-01-01T18:11:28.545Z,101322.91
2023-01-01T18:13:56.049Z,101322.91
2023-01-01T18:16:25.719Z,101325.50
2023-01-01T18:18:53.251Z,101328.97
2023-01-01T18:21:23.576Z,101320.34
2023-01-01T18:23:53.080Z,101331.56
2023-01-01T18:26:21.400Z,101331.56
2023-01-01T18:28:52.227Z,101324.63
2023-01-01T18:31:20.116Z,101323.78
2023-01-01T18:33:48.915Z,101320.28
2023-01-01T18:36:18.425Z,101321.19
2023-01-01T18:38:54.175Z,101320.22
2023-01-01T18:41:36.476Z,101328.06
2023-01-01T18:44:04.017Z,101329.72
2023-01-01T18:46:34.098Z,101334.13
2023-01-01T18:49:03.054Z,101336.72
2023-01-01T18:51:30.453Z,101334.09
2023-01-01T18:53:59.536Z,101348.81
2023-01-01T18:56:27.083Z,101337.59
2023-01-01T18:58:57.219Z,101343.63
2023-01-01T19:01:25.507Z,101343.59
2023-01-01T19:03:57.019Z,101346.19
2023-01-01T19:06:30.111Z,101336.69
2023-01-01T19:09:09.407Z,101341.91
2023-01-01T19:11:39.191Z,101348.78
2023-01-01T19:14:16.260Z,101348.81
2023-01-01T19:16:44.396Z,101337.56
2023-01-01T19:19:16.888Z,101336.72
2023-01-01T19:21:51.276Z,101332.22
2023-01-01T19:24:22.759Z,101328.91
2023-01-01T19:26:55.362Z,101335.84
2023-01-01T19:29:24.250Z,101334.97
2023-01-01T19:31:53.477Z,101332.41
2023-01-01T19:34:21.456Z,101335.88
2023-01-01T19:36:50.889Z,101332.38
2023-01-01T19:39:18.712Z,101328.13
2023-01-01T19:41:46.884Z,101336.69
2023-01-01T19:44:17.299Z,101328.06
2023-01-01T19:46:47.674Z,101327.28
2023-01-01T19:49:15.185Z,101331.53
2023-01-01T19:51:43.926Z,101340.25
2023-01-01T19:54:12.774Z,101326.41
2023-01-01T19:56:40.193Z,101324.63
2023-01-01T19:59:08.276Z,101317.69
2023-01-01T20:01:36.066Z,101315.16
2023-01-01T20:04:03.850Z,101309.97
2023-01-01T20:06:31.496Z,101308.22
2023-01-01T20:08:58.928Z,101315.16
2023-01-01T20:11:29.729Z,101306.50
2023-01-01T20:13:57.227Z,101309.06
2023-01-01T20:16:24.683Z,101305.63
2023-01-01T20:18:52.184Z,101301.31
2023-01-01T20:21:36.955Z,101298.72
2023-01-01T20:24:04.809Z,101302.13
2023-01-01T20:26:33.594Z,101290.91
2023-01-01T20:29:18.472Z,101294.41
2023-01-01T20:31:46.051Z,101295.25
2023-01-01T20:34:13.493Z,101289.16
2023-01-01T20:36:58.539Z,101291.75
2023-01-01T20:39:26.097Z,101284.84
2023-01-01T20:41:55.029Z,101284.84
2023-01-01T20:44:22.513Z,101284.00
2023-01-01T20:46:50.049Z,101285.75
2023-01-01T20:49:17.954Z,101293.53
2023-01-01T20:51:45.899Z,101282.25
2023-01-01T20:54:13.449Z,101287.47
2023-01-01T20:56:40.996Z,101287.47
2023-01-01T20:59:33.553Z,101284.84
2023-01-01T21:01:59.845Z,101283.13
2023-01-01T21:04:27.460Z,101276.22
2023-01-01T21:06:54.917Z,101281.41
2023-01-01T21:09:22.336Z,101282.25
2023-01-01T21:11:49.762Z,101288.31
2023-01-01T21:14:18.757Z,101296.13
2023-01-01T21:16:46.387Z,101283.13
2023-01-01T21:19:13.903Z,101278.78
2023-01-01T21:21:45.123Z,101270.91
2023-01-01T21:24:22.644Z,101264.97
2023-01-01T21:26:52.265Z,101251.97
2023-01-01T21:29:23.141Z,101260.63
2023-01-01T21:31:53.289Z,101259.78
2023-01-01T21:34:27.364Z,101275.34
2023-01-01T21:37:01.184Z,101285.72
2023-01-01T21:39:31.578Z,101286.56
2023-01-01T21:42:16.583Z,101281.34
2023-01-01T21:44:45.375Z,101270.19
2023-01-01T21:47:23.306Z,101271.03
2023-01-01T21:49:53.572Z,101272.75
2023-01-01T21:52:24.974Z,101271.00
2023-01-01T21:54:53.230Z,101276.22
2023-01-01T21:57:23.223Z,101285.75
2023-01-01T21:59:54.135Z,101297.84
2023-01-01T22:02:39.113Z,101302.97
2023-01-01T22:05:31.344Z,101288.34
2023-01-01T22:07:59.786Z,101288.31
2023-01-01T22:10:32.242Z,101289.19
2023-01-01T22:13:01.451Z,101286.59
2023-01-01T22:15:38.912Z,101293.47
2023-01-01T22:18:18.588Z,101280.56
2023-01-01T22:20:47.113Z,101291.75
2023-01-01T22:23:24.555Z,101292.66
2023-01-01T22:25:53.488Z,101287.44
2023-01-01T22:28:23.979Z,101280.50
2023-01-01T22:30:56.215Z,101287.44
2023-01-01T22:33:28.799Z,101262.25
2023-01-01T22:35:57.839Z,101263.78
2023-01-01T22:38:30.749Z,101269.09
2023-01-01T22:40:58.369Z,101269.19
2023-01-01T22:43:28.819Z,101266.53
2023-01-01T22:45:57.630Z,101266.53
2023-01-01T22:48:32.619Z,101271.69
2023-01-01T22:51:07.134Z,101257.66
2023-01-01T22:53:34.665Z,101257.56
2023-01-01T22:56:02.112Z,101254.84
2023-01-01T22:58:29.571Z,101253.41
2023-01-01T23:00:58.312Z,101250.69
2023-01-01T23:03:25.813Z,101243.94
2023-01-01T23:05:54.530Z,101240.59
2023-01-01T23:08:22.351Z,101225.88
2023-01-01T23:10:49.867Z,101226.78
2023-01-01T23:13:46.221Z,101229.38
2023-01-01T23:16:15.006Z,101222.47
2023-01-01T23:18:46.203Z,101213.00
2023-01-01T23:21:24.385Z,101215.59
2023-01-01T23:23:56.122Z,101215.59
2023-01-01T23:26:24.205Z,101208.72
2023-01-01T23:28:52.682Z,101209.56
2023-01-01T23:31:25.487Z,101206.94
2023-01-01T23:33:54.022Z,101204.34
2023-01-01T23:36:21.603Z,101194.03
2023-01-01T23:38:49.044Z,101187.94
2023-01-01T23:41:16.540Z,101194.88
2023-01-01T23:43:44.269Z,101181.00
2023-01-01T23:46:12.583Z,101185.34
2023-01-01T23:48:41.900Z,101181.00
2023-01-01T23:51:09.657Z,101174.09
2023-01-01T23:53:37.216Z,101168.03
2023-01-01T23:56:04.990Z,101165.41
2023-01-01T23:58:32.400Z,101158.56
